Time;durP1;ratioP1;P1;durP2;ratioP2;P2;SDS_P1;SDS_P2;PMS_P1;PMS_P2;Temp;Humidity;BMP_temperature;BMP_pressure;BME280_temperature;BME280_humidity;BME280_pressure;Samples;Min_cycle;Max_cycle;Signal;HPM_P1;HPM_P2
2023/05/06 00:01:23;;;;;;;0.60;0.40;;;14.10;99.90;;;;;;5061340;28;20514;-76
2023/05/06 00:03:50;;;;;;;0.50;0.40;;;14.00;99.90;;;;;;5056170;28;20456;-76
2023/05/06 00:06:17;;;;;;;0.50;0.43;;;14.10;99.90;;;;;;5059858;28;20456;-76
2023/05/06 00:08:44;;;;;;;1.67;0.47;;;14.00;99.90;;;;;;5062403;28;20450;-77
2023/05/06 00:11:12;;;;;;;0.60;0.40;;;14.00;99.90;;;;;;5064083;28;20461;-76
2023/05/06 00:13:41;;;;;;;2.20;0.40;;;14.00;99.90;;;;;;5067204;28;20946;-78
2023/05/06 00:16:08;;;;;;;0.60;0.40;;;14.00;99.90;;;;;;5050149;28;20477;-76
2023/05/06 00:18:35;;;;;;;0.40;0.30;;;14.00;99.90;;;;;;5046686;28;20463;-81
2023/05/06 00:21:02;;;;;;;0.50;0.40;;;13.90;99.90;;;;;;5053171;28;20525;-77
2023/05/06 00:23:29;;;;;;;0.50;0.40;;;13.90;99.90;;;;;;5056305;28;20465;-76
2023/05/06 00:25:56;;;;;;;0.47;0.40;;;13.90;99.90;;;;;;5063043;28;20468;-76
2023/05/06 00:28:23;;;;;;;1.33;0.40;;;13.90;99.90;;;;;;5059591;28;20861;-80
2023/05/06 00:30:51;;;;;;;0.50;0.40;;;13.90;99.90;;;;;;5054128;28;20448;-78
2023/05/06 00:33:18;;;;;;;0.97;0.67;;;13.90;99.90;;;;;;5053301;28;20449;-76
2023/05/06 00:35:45;;;;;;;1.20;0.50;;;14.00;99.90;;;;;;5059326;28;20480;-79
2023/05/06 00:38:14;;;;;;;1.33;0.50;;;14.00;99.90;;;;;;5059705;28;20457;-76
2023/05/06 00:40:41;;;;;;;1.23;0.50;;;14.00;99.90;;;;;;5063626;28;20464;-79
2023/05/06 00:43:08;;;;;;;0.50;0.40;;;13.90;99.90;;;;;;5057900;28;20448;-76
2023/05/06 00:45:35;;;;;;;0.50;0.40;;;13.80;99.90;;;;;;5056269;28;20781;-77
2023/05/06 00:48:05;;;;;;;0.60;0.60;;;13.70;99.90;;;;;;5063518;28;20529;-76
2023/05/06 00:50:33;;;;;;;2.60;0.60;;;13.60;99.90;;;;;;5061256;28;20472;-79
2023/05/06 00:53:03;;;;;;;0.70;0.50;;;13.40;99.90;;;;;;5053313;28;20507;-76
2023/05/06 00:55:31;;;;;;;0.60;0.50;;;13.40;99.90;;;;;;5053566;28;21069;-77
2023/05/06 00:57:58;;;;;;;1.73;0.50;;;13.40;99.90;;;;;;5061076;28;20838;-76
2023/05/06 01:00:25;;;;;;;0.97;0.50;;;13.40;99.90;;;;;;5060987;28;20878;-76
2023/05/06 01:02:52;;;;;;;3.33;0.60;;;13.40;99.90;;;;;;5061261;28;20464;-79
2023/05/06 01:05:22;;;;;;;1.23;0.70;;;13.40;99.90;;;;;;5061743;28;20435;-79
2023/05/06 01:07:56;;;;;;;0.60;0.60;;;13.40;99.90;;;;;;5065424;28;20494;-76
2023/05/06 01:10:30;;;;;;;0.60;0.50;;;13.50;99.90;;;;;;5058184;28;21230;-78
2023/05/06 01:13:06;;;;;;;2.60;0.70;;;13.50;99.90;;;;;;5052098;28;20544;-77
2023/05/06 01:15:38;;;;;;;0.80;0.53;;;13.40;99.90;;;;;;5057249;28;21331;-77
2023/05/06 01:18:10;;;;;;;2.20;0.73;;;13.40;99.90;;;;;;5061694;28;20490;-77
2023/05/06 01:20:42;;;;;;;1.13;0.60;;;13.40;99.90;;;;;;5065361;28;20872;-77
2023/05/06 01:23:11;;;;;;;0.70;0.70;;;13.30;99.90;;;;;;5060606;28;20454;-79
2023/05/06 01:25:39;;;;;;;0.67;0.50;;;13.20;99.90;;;;;;5064804;28;20464;-77
2023/05/06 01:28:09;;;;;;;2.27;0.80;;;13.30;99.90;;;;;;5063240;28;20923;-77
2023/05/06 01:30:42;;;;;;;0.50;0.50;;;13.20;99.90;;;;;;5057381;28;20978;-77
2023/05/06 01:33:18;;;;;;;0.80;0.80;;;13.30;99.90;;;;;;5063532;28;20497;-77
2023/05/06 01:36:07;;;;;;;0.63;0.60;;;13.40;99.90;;;;;;5055069;28;20484;-77
2023/05/06 01:38:41;;;;;;;2.20;0.70;;;13.50;99.90;;;;;;5065160;28;20772;-77
2023/05/06 01:41:14;;;;;;;2.20;0.73;;;13.40;99.90;;;;;;5064908;28;20446;-77
2023/05/06 01:43:44;;;;;;;1.57;0.73;;;13.30;99.90;;;;;;5060823;28;20460;-77
2023/05/06 01:46:15;;;;;;;1.20;1.10;;;13.20;99.90;;;;;;5057126;28;21190;-79
2023/05/06 01:48:45;;;;;;;1.03;1.00;;;13.10;99.90;;;;;;5065398;28;20471;-79
2023/05/06 01:51:13;;;;;;;0.80;0.80;;;13.10;99.90;;;;;;5054049;28;20471;-78
2023/05/06 01:53:41;;;;;;;0.80;0.80;;;13.10;99.90;;;;;;5058863;28;20514;-77
2023/05/06 01:56:08;;;;;;;2.40;1.73;;;13.10;99.90;;;;;;5056306;28;20537;-77
2023/05/06 01:58:36;;;;;;;0.83;0.80;;;13.10;99.90;;;;;;5061710;28;20505;-77
2023/05/06 02:01:03;;;;;;;0.63;0.63;;;13.10;99.90;;;;;;5062520;28;20444;-77
2023/05/06 02:03:30;;;;;;;4.30;0.70;;;13.00;99.90;;;;;;5065775;28;20456;-77
2023/05/06 02:05:57;;;;;;;0.80;0.70;;;13.10;99.90;;;;;;5063896;28;21005;-77
2023/05/06 02:08:24;;;;;;;0.80;0.70;;;13.10;99.90;;;;;;5067461;28;20466;-79
2023/05/06 02:10:52;;;;;;;1.00;0.80;;;13.10;99.90;;;;;;5057705;28;20513;-77
2023/05/06 02:13:19;;;;;;;2.00;0.73;;;13.10;99.90;;;;;;5076132;28;20727;-80
2023/05/06 02:15:46;;;;;;;1.03;0.83;;;13.20;99.90;;;;;;5062133;28;20480;-77
2023/05/06 02:18:13;;;;;;;1.07;0.77;;;13.10;99.90;;;;;;5059068;28;20458;-77
2023/05/06 02:20:40;;;;;;;0.90;0.80;;;13.10;99.90;;;;;;5070482;28;20498;-80
2023/05/06 02:23:07;;;;;;;0.70;0.70;;;13.00;99.90;;;;;;5065901;28;20521;-77
2023/05/06 02:25:34;;;;;;;1.30;1.27;;;13.00;99.90;;;;;;5067921;28;20460;-81
2023/05/06 02:28:02;;;;;;;1.20;1.10;;;13.00;99.90;;;;;;5067918;28;20771;-76
2023/05/06 02:30:30;;;;;;;1.37;0.90;;;13.00;99.90;;;;;;5066779;28;20460;-78
2023/05/06 02:32:57;;;;;;;1.23;0.97;;;13.10;99.90;;;;;;5066473;28;20522;-79
2023/05/06 02:35:24;;;;;;;1.20;0.80;;;13.10;99.90;;;;;;5051795;28;20471;-77
2023/05/06 02:37:51;;;;;;;0.90;0.90;;;13.20;99.90;;;;;;5060443;28;20449;-77
2023/05/06 02:40:18;;;;;;;2.50;1.37;;;13.10;99.90;;;;;;5063233;28;20454;-78
2023/05/06 02:42:46;;;;;;;1.00;0.90;;;13.10;99.90;;;;;;5064464;28;20497;-77
2023/05/06 02:45:14;;;;;;;1.87;1.77;;;13.10;99.90;;;;;;5049467;28;20457;-76
2023/05/06 02:47:41;;;;;;;1.20;1.10;;;13.00;99.90;;;;;;5063822;28;20441;-77
2023/05/06 02:50:08;;;;;;;1.20;1.10;;;13.10;99.90;;;;;;5066998;28;20968;-77
2023/05/06 02:52:35;;;;;;;1.20;1.10;;;13.00;99.90;;;;;;5064598;28;20464;-76
2023/05/06 02:55:03;;;;;;;1.20;1.10;;;13.00;99.90;;;;;;5061051;28;20567;-76
2023/05/06 02:57:30;;;;;;;0.90;0.90;;;13.00;99.90;;;;;;5066209;28;20479;-77
2023/05/06 02:59:57;;;;;;;1.73;1.63;;;13.00;99.90;;;;;;5062332;28;20445;-77
2023/05/06 03:02:25;;;;;;;2.80;1.43;;;13.00;99.90;;;;;;5059880;28;20448;-79
2023/05/06 03:04:52;;;;;;;5.60;1.60;;;12.90;99.90;;;;;;5064802;28;20561;-77
2023/05/06 03:07:19;;;;;;;1.50;1.23;;;13.00;99.90;;;;;;5064283;28;20521;-77
2023/05/06 03:09:46;;;;;;;1.30;1.20;;;12.90;99.90;;;;;;5063254;28;20472;-79
2023/05/06 03:12:13;;;;;;;1.60;1.23;;;12.80;99.90;;;;;;5060533;28;20985;-77
2023/05/06 03:14:40;;;;;;;1.73;1.63;;;12.80;99.90;;;;;;5055882;28;20974;-80
2023/05/06 03:17:07;;;;;;;1.80;1.70;;;12.80;99.90;;;;;;5055870;28;21235;-77
2023/05/06 03:19:36;;;;;;;1.50;1.40;;;12.80;99.90;;;;;;5065146;28;20448;-76
2023/05/06 03:22:03;;;;;;;2.83;2.50;;;12.80;99.90;;;;;;5055995;28;20579;-76
2023/05/06 03:24:29;;;;;;;1.83;1.73;;;12.80;99.90;;;;;;5058553;28;20456;-79
2023/05/06 03:26:57;;;;;;;1.50;1.40;;;12.80;99.90;;;;;;5060027;28;20445;-77
2023/05/06 03:29:24;;;;;;;1.30;1.20;;;12.60;99.90;;;;;;5064964;28;20463;-77
2023/05/06 03:31:51;;;;;;;2.20;2.10;;;12.60;99.90;;;;;;5064945;28;20445;-81
2023/05/06 03:34:18;;;;;;;1.70;1.43;;;12.70;99.90;;;;;;5059640;28;20491;-75
2023/05/06 03:36:46;;;;;;;29.40;15.17;;;12.60;99.90;;;;;;5056858;28;20488;-77
2023/05/06 03:39:13;;;;;;;11.33;5.77;;;12.70;99.90;;;;;;5056403;28;20538;-81
2023/05/06 03:41:40;;;;;;;12.33;7.40;;;12.70;99.90;;;;;;5067863;28;20444;-77
2023/05/06 03:44:07;;;;;;;27.00;13.40;;;12.60;99.90;;;;;;5058321;28;20527;-78
2023/05/06 03:46:34;;;;;;;7.17;5.50;;;12.60;99.90;;;;;;5056057;28;20452;-79
2023/05/06 03:49:01;;;;;;;19.47;11.43;;;12.70;99.90;;;;;;5057806;28;20469;-77
2023/05/06 03:51:29;;;;;;;30.40;18.40;;;12.60;99.90;;;;;;5063242;28;20524;-77
2023/05/06 03:53:58;;;;;;;5.80;4.20;;;12.60;99.90;;;;;;5064511;28;20502;-78
2023/05/06 03:56:25;;;;;;;10.40;6.80;;;12.70;99.90;;;;;;5066289;28;20492;-77
2023/05/06 03:58:52;;;;;;;9.37;6.07;;;12.70;99.90;;;;;;5066387;28;20463;-78
2023/05/06 04:01:20;;;;;;;4.47;4.03;;;12.70;99.90;;;;;;5065267;28;20441;-78
2023/05/06 04:03:47;;;;;;;7.77;3.87;;;12.80;99.90;;;;;;5051681;28;20480;-79
2023/05/06 04:06:14;;;;;;;2.20;2.07;;;12.80;99.90;;;;;;5055423;28;20452;-77
2023/05/06 04:08:41;;;;;;;29.63;18.50;;;12.90;99.90;;;;;;5060230;28;20460;-81
2023/05/06 04:11:10;;;;;;;10.73;5.80;;;12.90;99.90;;;;;;5050064;28;20926;-77
2023/05/06 04:13:37;;;;;;;2.07;1.97;;;13.00;99.90;;;;;;5051725;28;20501;-79
2023/05/06 04:16:04;;;;;;;1.93;1.83;;;13.00;99.90;;;;;;5062881;28;20448;-79
2023/05/06 04:18:31;;;;;;;1.90;1.80;;;13.20;99.90;;;;;;5062939;28;20505;-77
2023/05/06 04:20:58;;;;;;;1.60;1.50;;;13.30;99.90;;;;;;5063043;28;20456;-77
2023/05/06 04:23:25;;;;;;;1.70;1.60;;;13.50;99.90;;;;;;5058152;28;20456;-76
2023/05/06 04:25:52;;;;;;;2.10;2.00;;;13.60;99.90;;;;;;5065210;28;20444;-77
2023/05/06 04:28:21;;;;;;;2.00;1.90;;;13.70;99.90;;;;;;5058904;28;20441;-77
2023/05/06 04:30:48;;;;;;;2.27;2.07;;;13.80;99.90;;;;;;5060744;28;20444;-77
2023/05/06 04:33:15;;;;;;;2.00;1.90;;;13.80;99.90;;;;;;5061354;28;20934;-80
2023/05/06 04:35:52;;;;;;;5.10;2.87;;;13.80;99.90;;;;;;5055684;28;20465;-77
2023/05/06 04:38:19;;;;;;;2.27;2.07;;;13.70;99.90;;;;;;5055814;28;20838;-81
2023/05/06 04:40:46;;;;;;;2.70;2.20;;;13.70;99.90;;;;;;5050664;28;20445;-76
2023/05/06 04:43:13;;;;;;;1.73;1.63;;;13.70;99.90;;;;;;5055121;28;20579;-77
2023/05/06 04:45:47;;;;;;;5.20;1.97;;;13.80;99.90;;;;;;5059159;28;20444;-77
2023/05/06 04:48:16;;;;;;;1.70;1.60;;;13.80;99.90;;;;;;5057725;28;20475;-83
2023/05/06 04:50:43;;;;;;;3.80;2.03;;;13.90;99.90;;;;;;5064728;28;20468;-79
2023/05/06 04:53:10;;;;;;;2.23;2.03;;;13.90;99.90;;;;;;5058853;28;20441;-77
2023/05/06 04:55:37;;;;;;;2.13;2.00;;;13.80;99.90;;;;;;5058649;28;20510;-77
2023/05/06 04:58:04;;;;;;;2.30;1.93;;;13.80;99.90;;;;;;5064015;28;20480;-78
2023/05/06 05:00:31;;;;;;;1.70;1.60;;;13.70;99.90;;;;;;5064779;28;20443;-77
2023/05/06 05:03:00;;;;;;;1.83;1.63;;;13.70;99.90;;;;;;5051311;28;20509;-76
2023/05/06 05:05:28;;;;;;;1.70;1.43;;;13.70;99.90;;;;;;5060301;28;20436;-81
2023/05/06 05:07:55;;;;;;;1.33;1.27;;;13.70;99.90;;;;;;5054717;28;20522;-77
2023/05/06 05:10:22;;;;;;;1.30;1.20;;;13.70;99.90;;;;;;5059109;28;21103;-78
2023/05/06 05:12:49;;;;;;;2.00;1.40;;;13.70;99.90;;;;;;5053290;28;21168;-80
2023/05/06 05:15:16;;;;;;;3.40;1.20;;;13.70;99.90;;;;;;5056122;28;20445;-77
2023/05/06 05:17:44;;;;;;;1.40;1.10;;;13.70;99.90;;;;;;5060255;28;20541;-77
2023/05/06 05:20:12;;;;;;;1.57;1.47;;;13.70;99.90;;;;;;5059147;28;20456;-80
2023/05/06 05:22:39;;;;;;;1.50;1.33;;;13.80;99.90;;;;;;5068686;28;20480;-82
2023/05/06 05:25:07;;;;;;;2.50;1.50;;;13.70;99.90;;;;;;5067831;28;20487;-76
2023/05/06 05:27:35;;;;;;;1.50;1.40;;;13.70;99.90;;;;;;5064523;28;20529;-78
2023/05/06 05:30:02;;;;;;;6.40;1.57;;;13.80;99.90;;;;;;5067836;28;21010;-76
2023/05/06 05:32:29;;;;;;;1.93;1.60;;;13.90;99.90;;;;;;5060413;28;20440;-77
2023/05/06 05:34:56;;;;;;;1.63;1.53;;;14.10;99.90;;;;;;5070068;28;21118;-76
2023/05/06 05:37:24;;;;;;;3.27;1.50;;;14.10;99.90;;;;;;5056953;28;21194;-80
2023/05/06 05:39:51;;;;;;;1.80;1.60;;;14.20;99.90;;;;;;5066355;28;21092;-78
2023/05/06 05:42:18;;;;;;;1.77;1.20;;;14.30;99.90;;;;;;5069094;28;20498;-77
2023/05/06 05:44:45;;;;;;;1.30;1.20;;;14.20;99.90;;;;;;5062091;28;20490;-80
2023/05/06 05:47:12;;;;;;;1.77;1.10;;;14.50;99.90;;;;;;5068135;28;20940;-77
2023/05/06 05:49:39;;;;;;;3.50;1.53;;;14.60;99.90;;;;;;5059573;28;20467;-81
2023/05/06 05:52:07;;;;;;;1.40;1.30;;;14.70;99.90;;;;;;5064157;28;20448;-82
2023/05/06 05:54:36;;;;;;;5.60;1.17;;;15.00;99.90;;;;;;5068130;28;20436;-83
2023/05/06 05:57:03;;;;;;;1.33;1.23;;;15.20;99.90;;;;;;5067984;28;20952;-77
2023/05/06 05:59:31;;;;;;;1.87;1.77;;;15.20;99.90;;;;;;5069502;28;20456;-79
2023/05/06 06:01:58;;;;;;;2.83;1.20;;;15.30;99.90;;;;;;5069071;28;20467;-79
2023/05/06 06:04:25;;;;;;;1.10;1.10;;;15.50;99.90;;;;;;5066930;28;20842;-80
2023/05/06 06:06:52;;;;;;;1.27;1.17;;;15.60;99.90;;;;;;5063995;28;20632;-78
2023/05/06 06:09:22;;;;;;;1.30;1.13;;;15.70;99.90;;;;;;5061186;28;20486;-77
2023/05/06 06:11:50;;;;;;;1.40;1.30;;;15.80;99.90;;;;;;5070331;28;20480;-78
2023/05/06 06:14:17;;;;;;;1.20;1.10;;;15.90;99.90;;;;;;5068357;28;20460;-78
2023/05/06 06:16:44;;;;;;;1.53;1.20;;;16.10;99.90;;;;;;5071241;28;20448;-82
2023/05/06 06:19:11;;;;;;;1.70;1.60;;;16.20;99.90;;;;;;5068000;28;21008;-78
2023/05/06 06:21:38;;;;;;;1.03;1.00;;;16.40;99.90;;;;;;5068551;28;20903;-79
2023/05/06 06:24:06;;;;;;;1.30;1.20;;;16.60;99.90;;;;;;5065139;28;20465;-80
2023/05/06 06:26:33;;;;;;;2.40;1.20;;;16.70;99.90;;;;;;5068590;28;20449;-78
2023/05/06 06:29:01;;;;;;;1.43;1.13;;;16.90;99.90;;;;;;5058503;28;20470;-78
2023/05/06 06:31:28;;;;;;;0.80;0.80;;;16.90;99.90;;;;;;5055485;28;20498;-81
2023/05/06 06:33:55;;;;;;;1.00;0.90;;;17.10;99.90;;;;;;5060615;28;21038;-80
2023/05/06 06:36:22;;;;;;;9.20;1.60;;;17.00;99.90;;;;;;5065937;28;20498;-78
2023/05/06 06:38:49;;;;;;;1.33;1.00;;;17.00;99.90;;;;;;5063158;28;20487;-79
2023/05/06 06:41:16;;;;;;;1.30;0.90;;;17.00;99.90;;;;;;5065654;28;20462;-78
2023/05/06 06:43:43;;;;;;;1.77;1.20;;;17.10;99.90;;;;;;5063527;28;20450;-76
2023/05/06 06:46:11;;;;;;;1.13;1.03;;;17.30;99.90;;;;;;5065991;28;20545;-77
2023/05/06 06:48:38;;;;;;;1.10;1.00;;;17.40;99.90;;;;;;5067758;28;20922;-81
2023/05/06 06:51:06;;;;;;;0.90;0.83;;;17.50;99.90;;;;;;5067386;28;20957;-78
2023/05/06 06:53:34;;;;;;;1.63;1.20;;;17.50;99.90;;;;;;5069233;28;20548;-82
2023/05/06 06:56:01;;;;;;;1.23;1.10;;;17.60;99.90;;;;;;5058911;28;20461;-78
2023/05/06 06:58:28;;;;;;;2.03;1.10;;;17.10;99.90;;;;;;5061582;28;20488;-77
2023/05/06 07:00:55;;;;;;;2.20;1.10;;;17.00;99.90;;;;;;5059059;28;20573;-79
2023/05/06 07:03:23;;;;;;;1.57;1.47;;;17.00;99.90;;;;;;5060047;28;20923;-82
2023/05/06 07:05:50;;;;;;;1.80;1.40;;;16.90;99.90;;;;;;5059665;28;20487;-77
2023/05/06 07:08:20;;;;;;;1.40;1.30;;;17.10;99.90;;;;;;5062720;28;20487;-81
2023/05/06 07:10:47;;;;;;;2.57;1.40;;;17.20;99.90;;;;;;5063648;28;20456;-77
2023/05/06 07:13:14;;;;;;;1.97;1.20;;;17.50;99.90;;;;;;5072413;28;20465;-77
2023/05/06 07:15:41;;;;;;;1.23;1.13;;;17.60;99.90;;;;;;5055768;28;21009;-81
2023/05/06 07:18:09;;;;;;;1.53;1.33;;;17.60;99.90;;;;;;5062083;28;20495;-77
2023/05/06 07:20:38;;;;;;;2.37;1.23;;;17.40;99.90;;;;;;5060180;28;20937;-77
2023/05/06 07:23:05;;;;;;;2.10;1.40;;;17.30;99.90;;;;;;5065785;28;20453;-77
2023/05/06 07:25:32;;;;;;;1.83;1.37;;;17.20;99.90;;;;;;5056488;28;20462;-78
2023/05/06 07:27:59;;;;;;;1.30;1.20;;;17.20;99.90;;;;;;5061999;28;21036;-79
2023/05/06 07:30:26;;;;;;;2.40;1.90;;;17.10;99.90;;;;;;5064149;28;20484;-77
2023/05/06 07:32:53;;;;;;;1.60;1.50;;;17.30;99.90;;;;;;5057674;28;20472;-78
2023/05/06 07:35:20;;;;;;;2.20;1.30;;;17.30;99.90;;;;;;5065253;28;20440;-80
2023/05/06 07:37:49;;;;;;;1.40;1.30;;;17.20;99.90;;;;;;5050766;28;20485;-80
2023/05/06 07:40:16;;;;;;;1.60;1.37;;;17.40;99.90;;;;;;5065983;28;20453;-81
2023/05/06 07:42:42;;;;;;;2.10;1.27;;;17.30;99.90;;;;;;5054932;28;20949;-77
2023/05/06 07:45:10;;;;;;;1.20;1.10;;;17.10;99.90;;;;;;5053837;28;20462;-78
2023/05/06 07:47:37;;;;;;;1.30;1.00;;;17.00;99.90;;;;;;5056513;28;20508;-78
2023/05/06 07:50:05;;;;;;;1.90;1.70;;;17.60;99.90;;;;;;5057380;28;20461;-78
2023/05/06 07:52:32;;;;;;;1.90;1.33;;;18.00;99.90;;;;;;5050790;28;20879;-78
2023/05/06 07:55:01;;;;;;;2.47;1.40;;;18.30;99.90;;;;;;5066155;28;20450;-78
2023/05/06 07:57:28;;;;;;;1.43;1.33;;;18.20;99.90;;;;;;5061088;28;20547;-77
2023/05/06 07:59:54;;;;;;;2.23;2.03;;;18.20;99.90;;;;;;5059145;28;20528;-77
2023/05/06 08:02:21;;;;;;;1.33;1.23;;;18.30;99.90;;;;;;5065367;28;20460;-77
2023/05/06 08:04:48;;;;;;;1.63;1.30;;;17.90;99.90;;;;;;5062182;28;20465;-77
2023/05/06 08:07:15;;;;;;;2.00;1.50;;;18.40;99.90;;;;;;5055279;28;20446;-78
2023/05/06 08:09:42;;;;;;;1.83;0.93;;;18.70;99.90;;;;;;5053358;28;20531;-78
2023/05/06 08:12:11;;;;;;;6.10;5.03;;;18.90;99.90;;;;;;5055509;28;20521;-81
2023/05/06 08:14:38;;;;;;;1.37;1.27;;;19.10;99.90;;;;;;5055025;28;20441;-80
2023/05/06 08:17:05;;;;;;;1.67;1.33;;;19.30;99.90;;;;;;5063828;28;20819;-79
2023/05/06 08:19:32;;;;;;;1.23;0.80;;;19.00;99.90;;;;;;5062599;28;20486;-78
2023/05/06 08:21:59;;;;;;;0.90;0.90;;;18.90;99.90;;;;;;5053178;28;20444;-78
2023/05/06 08:24:26;;;;;;;2.30;1.20;;;19.30;99.90;;;;;;5065925;28;20451;-80
2023/05/06 08:26:53;;;;;;;1.83;1.73;;;19.30;99.90;;;;;;5046952;28;20461;-81
2023/05/06 08:29:21;;;;;;;1.67;1.57;;;19.30;99.90;;;;;;5055521;28;20550;-78
2023/05/06 08:31:48;;;;;;;2.30;2.20;;;19.20;99.90;;;;;;5068529;28;20429;-77
2023/05/06 08:34:17;;;;;;;1.70;1.60;;;19.20;99.90;;;;;;5076128;28;20438;-76
2023/05/06 08:36:44;;;;;;;2.00;1.83;;;19.20;99.90;;;;;;5074632;28;21039;-76
2023/05/06 08:39:12;;;;;;;1.70;1.60;;;19.20;99.90;;;;;;5066924;28;20478;-77
2023/05/06 08:41:40;;;;;;;1.87;1.23;;;19.00;99.90;;;;;;5066421;28;21073;-76
2023/05/06 08:44:08;;;;;;;3.30;2.30;;;19.30;99.90;;;;;;5065509;28;20504;-81
2023/05/06 08:46:36;;;;;;;1.90;1.70;;;19.60;99.90;;;;;;5065322;28;20459;-77
2023/05/06 08:49:03;;;;;;;1.70;1.43;;;19.70;99.90;;;;;;5066042;28;21217;-76
2023/05/06 08:51:32;;;;;;;2.30;1.10;;;19.80;99.90;;;;;;5056856;28;20522;-80
2023/05/06 08:54:02;;;;;;;1.43;1.33;;;19.90;99.90;;;;;;5067351;28;20502;-77
2023/05/06 08:56:32;;;;;;;1.73;1.63;;;20.10;99.90;;;;;;5056657;28;20972;-75
2023/05/06 08:59:00;;;;;;;1.57;1.47;;;20.20;99.90;;;;;;5064529;28;20553;-77
2023/05/06 09:01:27;;;;;;;1.53;1.40;;;20.50;99.90;;;;;;5066297;28;20955;-78
2023/05/06 09:03:56;;;;;;;1.30;1.20;;;20.70;99.90;;;;;;5060449;28;20440;-77
2023/05/06 09:06:24;;;;;;;1.00;0.90;;;21.00;99.90;;;;;;5062907;28;20910;-80
2023/05/06 09:08:51;;;;;;;9.20;1.80;;;20.80;99.90;;;;;;5069699;28;20444;-77
2023/05/06 09:11:25;;;;;;;2.23;2.03;;;20.70;99.90;;;;;;5068999;28;20931;-80
2023/05/06 09:14:11;;;;;;;1.47;0.90;;;21.00;99.90;;;;;;5069970;28;21019;-76
2023/05/06 09:16:39;;;;;;;1.43;1.13;;;20.90;99.90;;;;;;5065006;28;20452;-81
2023/05/06 09:19:07;;;;;;;2.20;1.17;;;21.00;99.90;;;;;;5063646;28;20484;-77
2023/05/06 09:21:35;;;;;;;2.37;1.40;;;20.80;99.90;;;;;;5061113;28;21223;-77
2023/05/06 09:24:03;;;;;;;2.20;2.10;;;21.00;99.90;;;;;;5062004;28;20455;-79
2023/05/06 09:26:31;;;;;;;1.90;1.30;;;21.30;99.90;;;;;;5070002;28;20481;-80
2023/05/06 09:28:59;;;;;;;1.60;1.50;;;21.30;99.90;;;;;;5068574;28;20488;-80
2023/05/06 09:31:26;;;;;;;1.40;1.30;;;21.00;99.90;;;;;;5063855;28;20456;-78
2023/05/06 09:33:54;;;;;;;1.20;0.87;;;21.10;99.90;;;;;;5066659;28;20455;-77
2023/05/06 09:36:25;;;;;;;0.90;0.80;;;21.20;99.90;;;;;;5077853;28;20451;-76
2023/05/06 09:38:52;;;;;;;1.43;1.33;;;21.10;99.90;;;;;;5065891;28;20484;-77
2023/05/06 09:41:21;;;;;;;1.17;1.17;;;21.50;99.90;;;;;;5069026;28;20460;-77
2023/05/06 09:43:49;;;;;;;1.63;1.53;;;21.90;99.90;;;;;;5064161;28;20456;-81
2023/05/06 09:46:17;;;;;;;1.37;1.00;;;21.90;99.90;;;;;;5065288;28;20555;-78
2023/05/06 09:48:45;;;;;;;1.60;1.50;;;22.00;99.90;;;;;;5066871;28;20487;-77
2023/05/06 09:51:13;;;;;;;1.93;1.50;;;21.40;99.20;;;;;;5068441;28;20946;-77
2023/05/06 09:53:43;;;;;;;1.43;1.33;;;20.80;99.90;;;;;;5073114;28;20464;-80
2023/05/06 09:56:11;;;;;;;1.60;1.20;;;20.60;99.90;;;;;;5065235;28;21107;-77
2023/05/06 09:58:38;;;;;;;1.20;1.10;;;20.90;99.90;;;;;;5059936;28;20588;-77
2023/05/06 10:01:07;;;;;;;1.40;1.30;;;20.70;99.90;;;;;;5064091;28;20451;-80
2023/05/06 10:03:35;;;;;;;1.67;1.57;;;20.70;99.90;;;;;;5065420;28;20462;-80
2023/05/06 10:06:04;;;;;;;2.10;2.00;;;20.60;99.90;;;;;;5065984;28;21204;-77
2023/05/06 10:08:34;;;;;;;2.17;1.87;;;20.40;99.90;;;;;;5063461;28;20814;-77
2023/05/06 10:11:05;;;;;;;1.63;1.53;;;20.50;99.90;;;;;;5062292;28;20470;-81
2023/05/06 10:13:32;;;;;;;1.90;1.80;;;20.40;99.90;;;;;;5062289;28;20923;-81
2023/05/06 10:16:01;;;;;;;7.57;1.53;;;20.40;99.90;;;;;;5063774;28;22224;-80
2023/05/06 10:18:30;;;;;;;1.17;1.10;;;20.40;99.90;;;;;;5062060;28;20603;-77
2023/05/06 10:21:00;;;;;;;1.60;1.50;;;20.30;99.90;;;;;;5064062;28;20460;-78
2023/05/06 10:23:37;;;;;;;1.60;1.50;;;20.70;99.90;;;;;;5061482;28;20544;-78
2023/05/06 10:26:07;;;;;;;2.80;2.17;;;21.00;99.90;;;;;;5080015;28;20997;-79
2023/05/06 10:28:39;;;;;;;3.53;1.87;;;20.40;99.90;;;;;;5060687;28;20538;-83
2023/05/06 10:31:10;;;;;;;1.97;1.87;;;20.30;99.90;;;;;;5064586;28;20455;-79
2023/05/06 10:33:37;;;;;;;1.30;1.20;;;20.20;99.90;;;;;;5063479;28;20452;-78
2023/05/06 10:36:15;;;;;;;1.10;0.90;;;20.10;99.90;;;;;;5070415;28;20451;-83
2023/05/06 10:38:44;;;;;;;1.47;1.37;;;19.90;99.90;;;;;;5058055;28;20490;-78
2023/05/06 10:41:13;;;;;;;2.33;1.30;;;19.70;99.90;;;;;;5062893;28;20472;-78
2023/05/06 10:43:42;;;;;;;2.20;1.00;;;19.60;99.90;;;;;;5068961;28;20448;-79
2023/05/06 10:46:10;;;;;;;1.13;1.03;;;19.60;99.90;;;;;;5063568;28;21022;-79
2023/05/06 10:48:39;;;;;;;2.67;0.90;;;19.60;99.90;;;;;;5067286;28;20545;-76
2023/05/06 10:51:22;;;;;;;1.47;1.07;;;19.80;99.90;;;;;;5066908;28;20513;-81
2023/05/06 10:53:57;;;;;;;1.40;1.30;;;19.60;99.90;;;;;;5068749;28;20450;-76
2023/05/06 10:56:25;;;;;;;1.63;1.00;;;19.60;99.90;;;;;;5059300;28;20462;-80
2023/05/06 10:58:54;;;;;;;1.03;0.97;;;19.60;99.90;;;;;;5065369;28;20527;-79
2023/05/06 11:01:22;;;;;;;1.20;1.10;;;19.60;99.90;;;;;;5063988;28;20453;-82
2023/05/06 11:03:51;;;;;;;0.87;0.87;;;20.10;99.90;;;;;;5063700;28;20463;-80
2023/05/06 11:06:39;;;;;;;2.30;1.33;;;20.60;99.90;;;;;;5067237;28;20459;-78
2023/05/06 11:09:07;;;;;;;1.70;1.07;;;21.00;99.90;;;;;;5066488;28;20467;-78
2023/05/06 11:11:53;;;;;;;1.40;0.80;;;21.30;99.90;;;;;;5062779;28;21014;-78
2023/05/06 11:14:31;;;;;;;1.50;0.60;;;21.90;99.90;;;;;;5069743;28;21005;-77
2023/05/06 11:17:00;;;;;;;1.10;0.80;;;22.20;98.50;;;;;;5068568;28;20572;-78
2023/05/06 11:19:28;;;;;;;0.70;0.70;;;22.30;98.20;;;;;;5064935;28;20507;-79
2023/05/06 11:21:57;;;;;;;0.77;0.77;;;22.70;96.50;;;;;;5062840;28;20450;-76
2023/05/06 11:24:26;;;;;;;1.00;0.90;;;22.90;95.10;;;;;;5051790;28;20822;-77
2023/05/06 11:26:55;;;;;;;0.90;0.90;;;22.20;96.20;;;;;;5069945;28;20452;-79
2023/05/06 11:29:23;;;;;;;1.00;0.83;;;21.80;96.50;;;;;;5065823;28;20661;-77
2023/05/06 11:31:51;;;;;;;1.50;1.40;;;21.50;98.10;;;;;;5064009;28;20531;-78
2023/05/06 11:34:26;;;;;;;1.30;1.20;;;21.20;98.10;;;;;;5070075;28;20787;-77
2023/05/06 11:37:01;;;;;;;2.03;1.30;;;21.00;98.70;;;;;;5082267;28;20798;-78
2023/05/06 11:39:29;;;;;;;2.03;1.20;;;20.90;99.70;;;;;;5077348;28;20523;-77
2023/05/06 11:41:58;;;;;;;1.20;1.10;;;20.50;99.90;;;;;;5075874;28;20440;-77
2023/05/06 11:44:27;;;;;;;1.10;1.00;;;20.40;99.90;;;;;;5070413;28;20480;-80
2023/05/06 11:46:58;;;;;;;1.53;1.43;;;20.10;99.90;;;;;;5068616;28;20818;-77
2023/05/06 11:49:26;;;;;;;1.40;1.30;;;19.90;99.90;;;;;;5067359;28;20516;-79
2023/05/06 11:51:53;;;;;;;2.80;1.83;;;19.70;99.90;;;;;;5067562;28;20456;-77
2023/05/06 11:54:21;;;;;;;1.17;0.80;;;19.30;99.90;;;;;;5069862;28;20447;-79
2023/05/06 11:56:52;;;;;;;1.27;0.90;;;19.00;99.90;;;;;;5062157;28;20525;-80
2023/05/06 11:59:28;;;;;;;2.63;1.20;;;18.60;99.90;;;;;;5064613;28;20569;-77
2023/05/06 12:01:57;;;;;;;1.80;1.70;;;18.70;99.90;;;;;;5064716;28;20467;-78
2023/05/06 12:04:24;;;;;;;2.37;2.17;;;18.90;99.90;;;;;;5066784;28;20444;-77
2023/05/06 12:06:52;;;;;;;5.13;1.80;;;19.10;99.90;;;;;;5062961;28;21064;-80
2023/05/06 12:09:22;;;;;;;1.73;1.63;;;20.10;99.90;;;;;;5058085;28;20456;-77
2023/05/06 12:11:50;;;;;;;3.73;3.43;;;20.80;99.90;;;;;;5067580;28;20460;-78
2023/05/06 12:14:17;;;;;;;2.03;1.93;;;21.80;99.90;;;;;;5060843;28;20528;-78
2023/05/06 12:16:46;;;;;;;1.60;1.50;;;21.90;99.90;;;;;;5064211;28;20491;-78
2023/05/06 12:19:16;;;;;;;3.57;2.80;;;21.80;99.90;;;;;;5064331;28;20573;-78
2023/05/06 12:21:43;;;;;;;1.50;1.40;;;22.00;99.90;;;;;;5070434;28;20556;-82
2023/05/06 12:24:11;;;;;;;1.07;1.07;;;21.80;99.90;;;;;;5058111;28;20487;-80
2023/05/06 12:26:48;;;;;;;1.60;1.03;;;21.50;99.90;;;;;;5059200;28;20448;-78
2023/05/06 12:29:16;;;;;;;1.23;1.10;;;21.40;99.90;;;;;;5062709;28;20464;-78
2023/05/06 12:31:47;;;;;;;2.30;1.70;;;21.00;99.90;;;;;;5067212;28;20471;-83
2023/05/06 12:34:17;;;;;;;1.43;1.33;;;20.80;99.90;;;;;;5069902;28;20493;-80
2023/05/06 12:36:45;;;;;;;2.60;2.40;;;20.60;99.90;;;;;;5064746;28;20460;-78
2023/05/06 12:39:13;;;;;;;2.63;2.43;;;20.50;99.90;;;;;;5060733;28;20549;-79
2023/05/06 12:41:41;;;;;;;3.33;3.03;;;20.90;99.90;;;;;;5061842;28;20496;-78
2023/05/06 12:44:31;;;;;;;3.60;3.40;;;21.20;99.90;;;;;;5058580;28;20511;-80
2023/05/06 12:46:59;;;;;;;4.33;2.80;;;21.50;99.90;;;;;;5062640;28;21088;-79
2023/05/06 12:49:26;;;;;;;2.07;1.97;;;21.50;99.90;;;;;;5060291;28;20532;-79
2023/05/06 12:52:06;;;;;;;3.07;2.17;;;21.50;99.90;;;;;;5057023;28;20461;-79